Time;durP1;ratioP1;P1;durP2;ratioP2;P2;SDS_P1;SDS_P2;PMS_P1;PMS_P2;Temp;Humidity;BMP_temperature;BMP_pressure;BME280_temperature;BME280_humidity;BME280_pressure;Samples;Min_cycle;Max_cycle;Signal;HPM_P1;HPM_P2
2022/06/30 00:02:25;;;;;;;3.60;1.88;;;19.80;99.90;;;;;;12380328;28;20039;-82
2022/06/30 00:08:27;;;;;;;2.65;1.88;;;19.80;99.90;;;;;;12357749;28;20061;-81
2022/06/30 00:14:29;;;;;;;2.92;1.90;;;19.80;99.90;;;;;;12383304;28;20582;-82
2022/06/30 00:20:30;;;;;;;3.95;1.90;;;19.80;99.90;;;;;;12375080;28;20046;-81
2022/06/30 00:26:32;;;;;;;3.83;2.00;;;19.80;99.90;;;;;;12382141;28;20046;-81
2022/06/30 00:32:34;;;;;;;3.30;1.70;;;19.60;99.90;;;;;;12363952;28;20384;-81
2022/06/30 00:38:38;;;;;;;3.67;1.80;;;19.60;99.90;;;;;;12370613;28;20054;-81
2022/06/30 00:44:39;;;;;;;;;;;19.70;99.90;;;;;;12368684;28;20085;-81
2022/06/30 00:50:41;;;;;;;4.30;2.03;;;19.60;99.90;;;;;;12366349;28;19922;-81
2022/06/30 00:56:46;;;;;;;2.67;1.98;;;19.50;99.90;;;;;;12381247;28;20138;-82
2022/06/30 01:02:48;;;;;;;3.60;1.85;;;19.50;99.90;;;;;;12363245;28;20047;-81
2022/06/30 01:08:50;;;;;;;3.42;2.08;;;19.40;99.90;;;;;;12368184;28;20126;-81
2022/06/30 01:14:53;;;;;;;4.88;2.17;;;19.40;99.90;;;;;;12387695;28;20077;-82
2022/06/30 01:20:55;;;;;;;3.97;2.05;;;19.40;99.90;;;;;;12396705;28;20078;-82
2022/06/30 01:26:57;;;;;;;5.80;2.08;;;19.30;99.90;;;;;;12356784;28;20805;-81
2022/06/30 01:32:59;;;;;;;4.05;2.20;;;19.30;99.90;;;;;;12364993;28;20495;-82
2022/06/30 01:39:01;;;;;;;3.13;2.30;;;19.40;99.90;;;;;;12389693;28;20050;-81
2022/06/30 01:45:04;;;;;;;3.13;2.00;;;19.30;99.90;;;;;;12355614;28;20542;-82
2022/06/30 01:51:06;;;;;;;3.57;2.00;;;19.20;99.90;;;;;;12363546;28;20046;-81
2022/06/30 01:57:08;;;;;;;3.38;2.28;;;19.10;99.90;;;;;;12370842;28;20057;-81
2022/06/30 02:03:09;;;;;;;7.35;2.03;;;19.20;99.90;;;;;;12360487;28;20054;-81
2022/06/30 02:09:11;;;;;;;3.47;2.35;;;19.10;99.90;;;;;;12356783;28;20480;-82
2022/06/30 02:15:23;;;;;;;3.90;2.20;;;19.10;99.90;;;;;;12354020;28;20038;-81
2022/06/30 02:21:24;;;;;;;5.00;2.03;;;19.10;99.90;;;;;;12349443;28;20950;-81
2022/06/30 02:27:26;;;;;;;3.72;2.40;;;19.10;99.90;;;;;;12370527;28;20458;-81
2022/06/30 02:33:28;;;;;;;5.72;2.80;;;19.00;99.90;;;;;;12368308;28;20050;-82
2022/06/30 02:39:30;;;;;;;4.28;2.45;;;18.90;99.90;;;;;;12364500;28;20193;-81
2022/06/30 02:45:32;;;;;;;5.53;2.50;;;18.80;99.90;;;;;;12367071;28;20054;-81
2022/06/30 02:51:33;;;;;;;3.33;2.60;;;18.70;99.90;;;;;;12346618;28;20502;-81
2022/06/30 02:57:36;;;;;;;4.50;2.50;;;18.60;99.90;;;;;;12377821;28;20135;-81
2022/06/30 03:03:38;;;;;;;4.30;2.70;;;18.60;99.90;;;;;;12373589;28;20082;-81
2022/06/30 03:09:40;;;;;;;4.15;2.70;;;18.50;99.90;;;;;;12365010;28;20626;-82
2022/06/30 03:15:42;;;;;;;3.30;2.40;;;18.60;99.90;;;;;;12350740;28;20137;-81
2022/06/30 03:21:44;;;;;;;3.85;2.83;;;18.50;99.90;;;;;;12352566;28;20498;-81
2022/06/30 03:27:46;;;;;;;4.20;2.60;;;18.50;99.90;;;;;;12361047;28;20070;-81
2022/06/30 03:33:48;;;;;;;5.18;2.53;;;18.50;99.90;;;;;;12365447;28;20092;-81
2022/06/30 03:39:50;;;;;;;4.18;2.67;;;18.40;99.90;;;;;;12368880;28;20181;-81
2022/06/30 03:45:52;;;;;;;5.00;2.90;;;18.30;99.90;;;;;;12385720;28;20457;-82
2022/06/30 03:51:54;;;;;;;4.68;2.60;;;18.40;99.90;;;;;;12345226;28;20128;-81
2022/06/30 03:57:55;;;;;;;5.32;2.90;;;18.40;99.90;;;;;;12362547;28;20503;-82
2022/06/30 04:03:57;;;;;;;4.15;2.95;;;18.30;99.90;;;;;;12355244;28;20098;-82
2022/06/30 04:10:05;;;;;;;3.58;2.55;;;18.30;99.90;;;;;;12368036;28;20046;-81
2022/06/30 04:16:06;;;;;;;4.90;2.78;;;18.40;99.90;;;;;;12364866;28;20507;-81
2022/06/30 04:22:13;;;;;;;3.25;2.50;;;18.40;99.90;;;;;;12369769;28;20051;-82
2022/06/30 04:28:15;;;;;;;3.58;2.78;;;18.30;99.90;;;;;;12382133;28;20040;-82
2022/06/30 04:34:17;;;;;;;4.95;3.08;;;18.30;99.90;;;;;;12366422;28;20490;-81
2022/06/30 04:46:39;;;;;;;5.15;3.10;;;18.50;99.90;;;;;;12379419;28;20138;-81
2022/06/30 04:52:41;;;;;;;7.07;3.05;;;18.50;99.90;;;;;;12355865;28;20165;-81
2022/06/30 04:58:44;;;;;;;6.20;3.17;;;18.60;99.90;;;;;;12378458;28;20121;-81
2022/06/30 05:04:45;;;;;;;4.00;3.17;;;18.60;99.90;;;;;;12358826;28;20123;-81
2022/06/30 05:10:47;;;;;;;4.95;2.97;;;18.70;99.90;;;;;;12362175;28;20051;-81
2022/06/30 05:16:49;;;;;;;3.80;2.63;;;18.70;99.90;;;;;;12355554;28;20133;-82
2022/06/30 05:22:51;;;;;;;6.45;2.70;;;18.70;99.90;;;;;;12354582;28;20054;-82
2022/06/30 05:28:53;;;;;;;7.40;2.92;;;18.70;99.90;;;;;;12355546;28;20422;-82
2022/06/30 05:34:55;;;;;;;4.85;3.08;;;18.90;99.90;;;;;;12360834;28;21049;-81
2022/06/30 05:40:57;;;;;;;5.28;3.08;;;19.00;99.90;;;;;;12360977;28;20604;-81
2022/06/30 05:46:59;;;;;;;4.93;3.10;;;19.10;99.90;;;;;;12361845;28;20062;-82
2022/06/30 05:53:00;;;;;;;4.10;3.20;;;19.20;99.90;;;;;;12365002;28;20077;-81
2022/06/30 05:59:02;;;;;;;3.70;3.00;;;19.30;99.90;;;;;;12354747;28;20055;-82
2022/06/30 06:05:04;;;;;;;6.22;4.20;;;19.40;99.90;;;;;;12360625;28;20046;-82
2022/06/30 06:11:06;;;;;;;5.25;4.65;;;19.60;99.90;;;;;;12363727;28;20124;-82
2022/06/30 06:17:08;;;;;;;4.90;3.60;;;19.80;99.90;;;;;;12337372;28;1138410;-81
2022/06/30 06:23:10;;;;;;;4.63;3.30;;;19.80;99.90;;;;;;12369983;28;20474;-81
2022/06/30 06:29:14;;;;;;;5.80;3.33;;;19.90;99.90;;;;;;12382096;28;20042;-82
2022/06/30 06:35:16;;;;;;;7.13;4.07;;;19.90;99.90;;;;;;12369987;28;20042;-82
2022/06/30 06:41:20;;;;;;;5.47;3.80;;;20.00;99.90;;;;;;12400074;28;20067;-82
2022/06/30 06:47:23;;;;;;;7.53;3.53;;;20.10;99.90;;;;;;12373888;28;20522;-82
2022/06/30 06:53:24;;;;;;;5.68;4.50;;;20.10;99.90;;;;;;12370694;28;20628;-82
2022/06/30 06:59:26;;;;;;;7.45;5.45;;;20.40;99.90;;;;;;12362432;28;20101;-81
2022/06/30 07:05:28;;;;;;;10.77;5.88;;;20.60;99.90;;;;;;12365345;28;20133;-82
2022/06/30 07:11:30;;;;;;;7.70;5.65;;;20.90;99.90;;;;;;12359737;28;20134;-82
2022/06/30 07:17:36;;;;;;;5.32;4.65;;;21.30;99.90;;;;;;12365617;28;20430;-81
2022/06/30 07:23:38;;;;;;;7.60;5.30;;;21.20;99.90;;;;;;12378560;28;20038;-82
2022/06/30 07:29:40;;;;;;;11.45;7.30;;;21.30;99.90;;;;;;12368649;28;20092;-83
2022/06/30 07:35:42;;;;;;;10.15;6.05;;;21.40;99.90;;;;;;12362028;28;20039;-83
2022/06/30 07:41:43;;;;;;;10.77;6.50;;;21.50;99.90;;;;;;12382585;28;20101;-82
2022/06/30 07:47:46;;;;;;;9.07;6.70;;;21.70;99.90;;;;;;12385357;28;20458;-82
2022/06/30 07:53:48;;;;;;;8.85;6.85;;;22.00;99.90;;;;;;12368957;28;20411;-81
2022/06/30 07:59:50;;;;;;;7.72;6.68;;;22.10;99.90;;;;;;12356955;28;20062;-82
2022/06/30 08:05:52;;;;;;;7.38;6.28;;;22.10;99.90;;;;;;12375497;28;20038;-82
2022/06/30 08:11:54;;;;;;;8.80;7.22;;;22.20;99.90;;;;;;12386563;28;20077;-82
2022/06/30 08:18:02;;;;;;;9.63;7.28;;;22.40;99.90;;;;;;12372416;28;20574;-81
2022/06/30 08:24:04;;;;;;;7.45;6.60;;;22.60;99.90;;;;;;12373078;28;20204;-81
2022/06/30 08:30:06;;;;;;;11.60;6.65;;;22.60;99.90;;;;;;12361826;28;20055;-82
2022/06/30 08:36:08;;;;;;;10.93;7.83;;;22.90;99.90;;;;;;12408671;28;20058;-82
2022/06/30 08:42:12;;;;;;;8.25;7.43;;;23.00;99.90;;;;;;12366234;28;20261;-81
2022/06/30 08:48:14;;;;;;;9.48;7.80;;;23.20;99.90;;;;;;12377720;28;20051;-82
2022/06/30 08:54:17;;;;;;;8.75;7.20;;;23.30;99.90;;;;;;12372753;28;20073;-81
2022/06/30 09:00:20;;;;;;;9.70;7.65;;;23.40;99.90;;;;;;12377046;28;20450;-82
2022/06/30 09:06:23;;;;;;;9.18;8.00;;;23.40;99.90;;;;;;12357974;28;20047;-83
2022/06/30 09:12:38;;;;;;;10.23;7.75;;;23.80;99.90;;;;;;12366823;28;20542;-82
2022/06/30 09:18:40;;;;;;;12.77;7.78;;;24.00;99.90;;;;;;12370935;28;20058;-82
2022/06/30 09:24:42;;;;;;;10.27;7.32;;;24.10;99.90;;;;;;12350332;28;20042;-83
2022/06/30 09:30:44;;;;;;;8.98;7.43;;;24.20;99.90;;;;;;12374783;28;20118;-83
2022/06/30 09:36:50;;;;;;;7.72;6.78;;;24.30;99.90;;;;;;12354425;28;20158;-82
2022/06/30 09:42:52;;;;;;;9.32;7.80;;;24.50;99.90;;;;;;12357076;28;20618;-82
2022/06/30 09:48:57;;;;;;;7.80;7.00;;;24.60;99.90;;;;;;12348815;28;20094;-82
2022/06/30 09:55:08;;;;;;;7.97;7.18;;;25.00;99.90;;;;;;12361920;28;20043;-81
2022/06/30 10:01:17;;;;;;;8.48;7.30;;;25.00;99.90;;;;;;12371138;28;20054;-83
2022/06/30 10:07:23;;;;;;;8.48;7.63;;;25.10;99.90;;;;;;12377817;28;20487;-82
2022/06/30 10:13:25;;;;;;;7.10;6.40;;;25.50;99.90;;;;;;12351366;28;20039;-82
2022/06/30 10:19:27;;;;;;;8.30;6.90;;;25.50;99.90;;;;;;12364697;28;20125;-83
2022/06/30 10:25:29;;;;;;;9.85;6.80;;;25.50;99.90;;;;;;12358127;28;20452;-82
2022/06/30 10:31:59;;;;;;;8.35;6.82;;;25.60;99.90;;;;;;12369497;28;20137;-82
2022/06/30 10:38:10;;;;;;;8.38;6.90;;;25.70;99.90;;;;;;12352576;28;20053;-82
2022/06/30 10:44:33;;;;;;;7.30;6.60;;;25.70;99.90;;;;;;12367236;28;20046;-82
2022/06/30 10:50:40;;;;;;;7.72;6.55;;;25.60;99.90;;;;;;12365843;28;20047;-82
2022/06/30 10:56:57;;;;;;;11.27;6.63;;;25.20;99.90;;;;;;12364937;28;20047;-82
2022/06/30 11:02:59;;;;;;;10.68;7.00;;;25.40;99.90;;;;;;12366218;28;20423;-82
2022/06/30 11:09:01;;;;;;;9.83;6.33;;;25.90;99.90;;;;;;12398559;28;20110;-83
2022/06/30 11:15:03;;;;;;;8.15;5.72;;;26.40;99.90;;;;;;12389982;28;20047;-81
2022/06/30 11:21:05;;;;;;;9.15;6.40;;;27.20;99.90;;;;;;12333594;28;20408;-83
2022/06/30 11:27:25;;;;;;;9.47;6.10;;;27.40;99.90;;;;;;12337736;28;20402;-82
2022/06/30 11:33:27;;;;;;;8.65;6.20;;;27.20;99.90;;;;;;12333238;28;20154;-82
2022/06/30 11:39:29;;;;;;;8.03;6.63;;;26.50;99.90;;;;;;12337316;28;20102;-83
2022/06/30 11:45:31;;;;;;;12.93;6.63;;;25.80;99.90;;;;;;12340488;28;20074;-82
2022/06/30 11:51:33;;;;;;;8.68;6.90;;;25.30;99.90;;;;;;12318688;28;20039;-82
2022/06/30 11:57:38;;;;;;;6.53;5.78;;;25.00;99.90;;;;;;12326524;28;20047;-83
2022/06/30 12:03:43;;;;;;;7.35;6.18;;;25.60;99.90;;;;;;12322492;28;20098;-82
2022/06/30 12:09:45;;;;;;;10.82;6.47;;;26.00;99.90;;;;;;12337809;28;20121;-82
2022/06/30 12:15:47;;;;;;;8.60;6.05;;;26.40;99.90;;;;;;12323356;28;20050;-81
2022/06/30 12:21:53;;;;;;;5.73;4.87;;;26.70;99.90;;;;;;12355885;28;20046;-82
2022/06/30 12:27:59;;;;;;;5.90;4.75;;;26.30;99.90;;;;;;12360702;28;20126;-82
2022/06/30 12:34:01;;;;;;;5.45;4.88;;;26.40;99.90;;;;;;12378401;28;20527;-82
2022/06/30 12:40:09;;;;;;;7.80;4.70;;;26.80;99.90;;;;;;12386058;28;20135;-82
2022/06/30 12:46:11;;;;;;;6.95;4.80;;;26.70;99.90;;;;;;12378397;28;20062;-82
2022/06/30 12:52:20;;;;;;;7.70;4.90;;;26.80;99.90;;;;;;12349156;28;20053;-82
2022/06/30 12:58:22;;;;;;;5.63;4.60;;;27.00;99.90;;;;;;12352235;28;20477;-83
2022/06/30 13:04:29;;;;;;;7.47;4.70;;;26.70;99.90;;;;;;12339811;28;20129;-82
2022/06/30 13:16:52;;;;;;;7.85;5.03;;;26.40;99.90;;;;;;12359367;28;20054;-82
2022/06/30 13:22:54;;;;;;;8.95;5.22;;;26.80;99.90;;;;;;12352011;28;20082;-83
2022/06/30 13:28:56;;;;;;;5.43;4.78;;;27.00;99.90;;;;;;12363408;28;20050;-83
2022/06/30 13:34:58;;;;;;;6.37;5.60;;;26.90;99.90;;;;;;12349567;28;20047;-82
2022/06/30 13:41:02;;;;;;;9.35;5.22;;;26.70;99.90;;;;;;12366425;28;20065;-82
2022/06/30 13:47:04;;;;;;;6.20;5.20;;;26.30;99.90;;;;;;12378943;28;20177;-83
2022/06/30 13:53:06;;;;;;;8.67;5.87;;;26.20;99.90;;;;;;12356402;28;20527;-83
2022/06/30 13:59:08;;;;;;;8.60;5.90;;;25.90;99.90;;;;;;12344604;28;20371;-82
2022/06/30 14:05:10;;;;;;;9.70;5.90;;;25.80;99.90;;;;;;12352790;28;20050;-84
2022/06/30 14:11:12;;;;;;;5.87;5.27;;;25.60;99.90;;;;;;12393337;28;20054;-83
2022/06/30 14:17:14;;;;;;;9.20;5.43;;;25.30;99.90;;;;;;12367612;28;20094;-84
2022/06/30 14:23:16;;;;;;;8.57;5.50;;;25.10;99.90;;;;;;12370321;28;20555;-84
2022/06/30 14:29:18;;;;;;;6.47;5.00;;;25.80;99.90;;;;;;12382732;28;20542;-83
2022/06/30 14:35:19;;;;;;;9.50;5.00;;;25.90;99.90;;;;;;12365992;28;20078;-83
2022/06/30 14:47:42;;;;;;;7.80;6.40;;;26.20;99.90;;;;;;12372245;28;20183;-83
2022/06/30 14:53:44;;;;;;;9.13;6.10;;;26.20;99.90;;;;;;12355688;28;20129;-83
2022/06/30 14:59:46;;;;;;;10.30;6.45;;;26.20;99.90;;;;;;12384423;28;20058;-83
2022/06/30 15:05:47;;;;;;;8.55;6.20;;;26.30;99.90;;;;;;12360355;28;20046;-83
2022/06/30 15:11:50;;;;;;;8.60;6.20;;;26.30;99.90;;;;;;12384222;28;20038;-82
2022/06/30 15:17:52;;;;;;;7.90;5.82;;;26.50;99.90;;;;;;12357345;28;20169;-83
2022/06/30 15:24:04;;;;;;;9.52;5.93;;;26.50;99.90;;;;;;12349142;28;20074;-83
2022/06/30 15:30:07;;;;;;;7.22;5.82;;;26.60;99.90;;;;;;12372414;28;20569;-84
2022/06/30 15:36:08;;;;;;;;;;;26.80;99.90;;;;;;12355620;28;20109;-83
2022/06/30 15:42:13;;;;;;;6.57;4.80;;;27.00;99.90;;;;;;12366401;28;19929;-82
2022/06/30 15:48:16;;;;;;;5.55;4.32;;;27.00;99.90;;;;;;12365197;28;20099;-83
2022/06/30 15:54:18;;;;;;;6.28;4.70;;;26.90;99.90;;;;;;12373988;28;20499;-83
2022/06/30 16:00:20;;;;;;;5.67;4.47;;;26.80;99.90;;;;;;12361708;28;20088;-83
2022/06/30 16:06:23;;;;;;;5.68;4.53;;;26.90;99.90;;;;;;12394653;28;20050;-82
2022/06/30 16:12:25;;;;;;;7.13;4.65;;;26.90;99.90;;;;;;12372739;28;20188;-82
2022/06/30 16:18:27;;;;;;;6.75;4.72;;;27.10;99.90;;;;;;12356669;28;20145;-83
2022/06/30 16:24:29;;;;;;;9.00;4.77;;;27.10;99.90;;;;;;12390251;28;20050;-82
2022/06/30 16:30:31;;;;;;;5.67;4.83;;;27.20;99.90;;;;;;12366502;28;20825;-84
2022/06/30 16:36:33;;;;;;;8.07;5.10;;;27.20;99.90;;;;;;12373537;28;20137;-83
2022/06/30 16:42:35;;;;;;;5.57;5.03;;;27.30;99.90;;;;;;12378358;28;20038;-82
2022/06/30 16:48:38;;;;;;;8.53;4.97;;;27.20;99.90;;;;;;12354736;28;20048;-82
2022/06/30 16:54:40;;;;;;;8.45;5.47;;;27.10;99.90;;;;;;12368404;28;20148;-83
2022/06/30 17:00:43;;;;;;;9.40;5.73;;;27.20;99.90;;;;;;12344024;28;20046;-83
2022/06/30 17:06:46;;;;;;;6.82;5.45;;;27.10;99.90;;;;;;12353072;28;20078;-83
2022/06/30 17:12:48;;;;;;;6.60;5.18;;;27.30;99.90;;;;;;12348284;28;20073;-83
2022/06/30 17:18:50;;;;;;;6.72;5.22;;;27.20;99.90;;;;;;12362729;28;20085;-83
2022/06/30 17:24:52;;;;;;;7.10;4.75;;;27.00;99.90;;;;;;12370614;28;20056;-83
2022/06/30 17:30:54;;;;;;;8.23;4.55;;;27.10;99.90;;;;;;12381207;28;20042;-82
2022/06/30 17:36:57;;;;;;;5.47;4.17;;;27.10;99.90;;;;;;12389406;28;20097;-83
2022/06/30 17:42:59;;;;;;;7.60;4.82;;;27.20;99.90;;;;;;12380434;28;20100;-82
2022/06/30 17:49:01;;;;;;;7.30;4.50;;;27.20;99.90;;;;;;12368052;28;20201;-82
2022/06/30 17:55:03;;;;;;;7.47;4.53;;;27.20;99.90;;;;;;12357165;28;20043;-82
2022/06/30 18:01:05;;;;;;;5.53;4.53;;;27.20;99.90;;;;;;12344241;28;20090;-83
2022/06/30 18:13:27;;;;;;;10.23;8.15;;;27.00;99.90;;;;;;12386913;28;20035;-83
2022/06/30 18:19:29;;;;;;;8.17;5.43;;;26.70;99.90;;;;;;12386868;28;20145;-83
2022/06/30 18:25:31;;;;;;;8.53;5.03;;;26.20;99.90;;;;;;12415943;28;20085;-82
2022/06/30 18:31:33;;;;;;;8.27;5.43;;;25.80;99.90;;;;;;12386469;28;20042;-83
2022/06/30 18:37:35;;;;;;;8.00;5.20;;;25.70;99.90;;;;;;12375942;28;20046;-82
2022/06/30 18:43:37;;;;;;;6.57;4.17;;;25.50;99.90;;;;;;12386556;28;20396;-82
2022/06/30 18:49:41;;;;;;;7.20;4.57;;;25.30;99.90;;;;;;12354650;28;20065;-82
2022/06/30 18:55:44;;;;;;;5.55;4.00;;;25.20;99.90;;;;;;12364474;28;20421;-83
2022/06/30 19:01:47;;;;;;;5.93;4.18;;;25.10;99.90;;;;;;12372382;28;20042;-83
2022/06/30 19:07:50;;;;;;;8.18;4.75;;;25.00;99.90;;;;;;12359641;28;20484;-83
2022/06/30 19:13:52;;;;;;;9.20;4.50;;;24.90;99.90;;;;;;12380759;28;20046;-83
2022/06/30 19:19:54;;;;;;;7.32;4.18;;;24.80;99.90;;;;;;12376653;28;20486;-83
2022/06/30 19:25:56;;;;;;;9.05;4.40;;;24.70;99.90;;;;;;12357585;28;20133;-83
2022/06/30 19:31:58;;;;;;;7.40;4.00;;;24.60;99.90;;;;;;12375608;28;20049;-83
2022/06/30 19:38:00;;;;;;;8.85;3.80;;;24.50;99.90;;;;;;12374632;28;20396;-82
2022/06/30 19:44:02;;;;;;;7.63;4.23;;;24.40;99.90;;;;;;12370409;28;20065;-83
2022/06/30 19:50:06;;;;;;;7.30;4.40;;;24.30;99.90;;;;;;12378554;28;20054;-82
2022/06/30 19:56:09;;;;;;;8.00;4.53;;;24.30;99.90;;;;;;12375240;28;20180;-82
2022/06/30 20:02:13;;;;;;;9.13;5.35;;;24.20;99.90;;;;;;12350175;28;20101;-82
2022/06/30 20:14:36;;;;;;;8.88;4.57;;;24.30;99.90;;;;;;12363688;28;20064;-82
2022/06/30 20:20:38;;;;;;;7.80;4.60;;;24.30;99.90;;;;;;12356046;28;20039;-81
2022/06/30 20:26:40;;;;;;;6.50;3.40;;;24.20;99.90;;;;;;12361123;28;20085;-79
2022/06/30 20:32:42;;;;;;;12.27;2.80;;;23.70;99.90;;;;;;12362952;28;20130;-81
2022/06/30 20:38:45;;;;;;;8.40;1.90;;;23.20;99.90;;;;;;12347811;28;20407;-80
2022/06/30 20:44:48;;;;;;;5.60;2.85;;;22.80;99.90;;;;;;12360668;28;20125;-79
2022/06/30 20:57:10;;;;;;;10.77;3.35;;;22.10;99.90;;;;;;12358406;28;20332;-80
2022/06/30 21:03:12;;;;;;;34.92;4.43;;;21.60;99.90;;;;;;12357472;28;20442;-81
2022/06/30 21:09:14;;;;;;;11.45;4.38;;;21.20;99.90;;;;;;12356906;28;20148;-80
2022/06/30 21:15:16;;;;;;;8.88;3.40;;;20.80;99.90;;;;;;12359249;28;20092;-81
2022/06/30 21:21:18;;;;;;;10.75;4.85;;;20.50;99.90;;;;;;12359844;28;20046;-81
2022/06/30 21:27:20;;;;;;;5.57;3.38;;;20.40;99.90;;;;;;12368641;28;20570;-81
2022/06/30 21:33:22;;;;;;;5.45;3.40;;;20.60;99.90;;;;;;12368172;28;20572;-81
2022/06/30 21:39:23;;;;;;;11.80;3.60;;;20.80;99.90;;;;;;12383690;28;20054;-82
2022/06/30 21:45:25;;;;;;;18.52;3.75;;;20.90;99.90;;;;;;12362646;28;20038;-81
2022/06/30 21:51:28;;;;;;;9.80;3.50;;;20.90;99.90;;;;;;12362955;28;20046;-83
2022/06/30 21:57:30;;;;;;;6.43;3.70;;;20.60;99.90;;;;;;12363465;28;20054;-84
2022/06/30 22:03:32;;;;;;;13.45;3.97;;;20.10;99.90;;;;;;12351341;28;20126;-84
2022/06/30 22:09:35;;;;;;;5.80;3.65;;;19.90;99.90;;;;;;12363422;28;20046;-84
2022/06/30 22:15:37;;;;;;;7.18;4.15;;;19.90;99.90;;;;;;12385083;28;20093;-82
2022/06/30 22:21:39;;;;;;;5.38;3.78;;;19.50;99.90;;;;;;12361918;28;20169;-81
2022/06/30 22:27:41;;;;;;;5.63;3.40;;;19.20;99.90;;;;;;12367403;28;20116;-83
2022/06/30 22:33:42;;;;;;;7.85;3.58;;;18.90;99.90;;;;;;12370455;28;20141;-84
2022/06/30 22:39:44;;;;;;;5.30;3.80;;;19.00;99.90;;;;;;12345626;28;20062;-83
2022/06/30 22:45:46;;;;;;;4.60;2.97;;;19.20;99.90;;;;;;12362636;28;20530;-85
2022/06/30 22:51:48;;;;;;;3.53;2.45;;;19.00;99.90;;;;;;12371773;28;20038;-83
2022/06/30 22:57:50;;;;;;;3.78;2.50;;;18.90;99.90;;;;;;12367333;28;20050;-82
2022/06/30 23:03:52;;;;;;;6.20;2.78;;;18.50;99.90;;;;;;12359228;28;20098;-82
2022/06/30 23:09:53;;;;;;;4.68;2.88;;;18.30;99.90;;;;;;12363719;28;20043;-83
2022/06/30 23:15:55;;;;;;;6.53;4.10;;;18.20;99.90;;;;;;12367754;28;20108;-85
2022/06/30 23:21:57;;;;;;;7.10;4.75;;;18.30;99.90;;;;;;12379913;28;20498;-85
2022/06/30 23:28:00;;;;;;;6.25;4.80;;;18.00;99.90;;;;;;12369113;28;20176;-83
2022/06/30 23:34:02;;;;;;;7.35;4.90;;;17.70;99.90;;;;;;12396453;28;20054;-86
2022/06/30 23:40:04;;;;;;;12.63;5.28;;;17.50;99.90;;;;;;12381291;28;20146;-84
2022/06/30 23:46:06;;;;;;;6.03;4.25;;;17.50;99.90;;;;;;12366444;28;20073;-83
2022/06/30 23:52:07;;;;;;;5.68;4.05;;;17.10;99.90;;;;;;12375571;28;20050;-82
2022/06/30 23:58:09;;;;;;;6.53;5.03;;;16.80;99.90;;;;;;12350339;28;20054;-81
